createdAt,value
2019-03-16T00:04:06.486Z,6.34
2019-03-16T00:09:06.758Z,6.2
2019-03-16T00:14:06.399Z,5.92
2019-03-16T00:19:06.273Z,5.85
2019-03-16T00:23:07.109Z,5.71
2019-03-16T00:28:06.440Z,5.57
2019-03-16T00:33:06.766Z,5.55
2019-03-16T00:38:07.274Z,5.39
2019-03-16T00:43:07.078Z,5.52
2019-03-16T00:48:06.975Z,5.52
2019-03-16T00:53:06.500Z,5.5
2019-03-16T00:58:06.948Z,5.43
2019-03-16T01:03:06.274Z,5.62
2019-03-16T01:07:06.974Z,5.55
2019-03-16T01:12:07.014Z,5.67
2019-03-16T01:17:07.001Z,5.49
2019-03-16T01:22:07.510Z,5.63
2019-03-16T01:27:07.280Z,5.36
2019-03-16T01:32:07.442Z,5.5
2019-03-16T01:36:06.690Z,5.33
2019-03-16T01:41:06.694Z,5.36
2019-03-16T01:46:07.164Z,5.21
2019-03-16T01:51:06.981Z,5.46
2019-03-16T01:56:07.073Z,5.47
2019-03-16T02:01:07.377Z,5.38
2019-03-16T02:06:08.934Z,5.63
2019-03-16T02:11:07.672Z,5.63
2019-03-16T02:16:11.855Z,5.57
2019-03-16T02:21:07.609Z,5.63
2019-03-16T02:26:06.645Z,5.6
2019-03-16T02:30:08.247Z,5.66
2019-03-16T02:35:07.367Z,5.64
2019-03-16T02:40:07.246Z,5.9
2019-03-16T02:45:07.742Z,5.92
2019-03-16T02:50:07.021Z,5.77
2019-03-16T02:55:06.608Z,5.77
2019-03-16T03:00:08.685Z,5.87
2019-03-16T03:05:07.060Z,5.92
2019-03-16T03:10:06.950Z,5.75
2019-03-16T03:15:08.078Z,5.69
2019-03-16T03:19:06.668Z,5.7
2019-03-16T03:24:07.226Z,5.62
2019-03-16T03:29:06.632Z,5.61
2019-03-16T03:34:06.962Z,5.56
2019-03-16T03:39:06.982Z,5.54
2019-03-16T03:44:06.523Z,5.55
2019-03-16T03:49:06.621Z,5.47
2019-03-16T03:54:07.162Z,5.52
2019-03-16T03:58:06.764Z,5.53
2019-03-16T04:03:07.306Z,5.39
2019-03-16T04:08:06.788Z,5.46
2019-03-16T04:13:06.468Z,5.39
2019-03-16T04:18:07.435Z,5.5
2019-03-16T04:23:07.509Z,5.5
2019-03-16T04:28:07.325Z,5.53
2019-03-16T04:33:06.676Z,5.69
2019-03-16T04:37:06.999Z,5.67
2019-03-16T04:42:06.485Z,5.65
2019-03-16T04:47:06.836Z,5.52
2019-03-16T04:52:07.021Z,5.52
2019-03-16T04:57:06.811Z,5.63
2019-03-16T05:02:06.829Z,5.52
2019-03-16T05:07:07.262Z,5.45
2019-03-16T05:12:07.324Z,5.42
2019-03-16T05:17:06.718Z,5.45
2019-03-16T05:21:06.871Z,5.35
2019-03-16T05:26:07.667Z,5.37
2019-03-16T05:31:07.049Z,5.47
2019-03-16T05:36:06.572Z,5.49
2019-03-16T05:41:07.394Z,5.43
2019-03-16T05:46:07.389Z,5.55
2019-03-16T05:51:06.820Z,5.61
2019-03-16T05:56:07.323Z,5.63
2019-03-16T06:01:07.114Z,5.71
2019-03-16T06:05:11.564Z,5.75
2019-03-16T06:10:07.488Z,5.78
2019-03-16T06:15:08.678Z,5.93
2019-03-16T06:20:06.941Z,6.02
2019-03-16T06:25:07.378Z,6.22
2019-03-16T06:30:08.340Z,6.28
2019-03-16T06:35:06.911Z,6.35
2019-03-16T06:40:06.765Z,6.36
2019-03-16T06:44:07.255Z,6.37
2019-03-16T06:49:06.226Z,6.42
2019-03-16T06:54:06.845Z,6.43
2019-03-16T06:59:06.205Z,6.43
2019-03-16T07:04:07.197Z,6.56
2019-03-16T07:09:07.052Z,6.66
2019-03-16T07:14:06.569Z,6.86
2019-03-16T07:19:06.746Z,6.95
2019-03-16T07:24:06.932Z,6.87
2019-03-16T07:28:06.652Z,6.84
2019-03-16T07:33:07.119Z,6.89
2019-03-16T07:38:06.594Z,6.82
2019-03-16T07:43:06.472Z,6.8
2019-03-16T07:48:06.899Z,6.75
2019-03-16T07:53:07.389Z,6.78
2019-03-16T07:58:06.889Z,6.87
2019-03-16T08:02:07.303Z,6.98
2019-03-16T08:07:06.732Z,7.07
2019-03-16T08:12:06.702Z,7.12
2019-03-16T08:17:07.209Z,7.2
2019-03-16T08:22:06.737Z,7.27
2019-03-16T08:27:07.599Z,7.43
2019-03-16T08:32:06.808Z,7.71
2019-03-16T08:37:06.356Z,7.63
2019-03-16T08:42:06.300Z,7.72
2019-03-16T08:46:06.795Z,7.81
2019-03-16T08:51:07.339Z,8.13
2019-03-16T08:56:06.722Z,8.31
2019-03-16T09:01:06.954Z,8.32
2019-03-16T09:06:06.615Z,8.42
2019-03-16T09:11:06.452Z,8.49
2019-03-16T09:16:06.446Z,8.6
2019-03-16T09:21:06.851Z,8.36
2019-03-16T09:25:06.684Z,8.15
2019-03-16T09:30:08.376Z,8.09
2019-03-16T09:35:07.447Z,7.41
2019-03-16T09:40:07.144Z,7.02
2019-03-16T09:45:07.734Z,7.03
2019-03-16T09:50:07.891Z,6.72
2019-03-16T09:55:07.327Z,6.33
2019-03-16T10:00:08.451Z,6.27
2019-03-16T10:04:07.295Z,6.01
2019-03-16T10:09:06.893Z,5.84
2019-03-16T10:14:06.718Z,5.77
2019-03-16T10:19:06.835Z,5.74
2019-03-16T10:24:07.334Z,5.64
2019-03-16T10:29:06.773Z,5.48
2019-03-16T10:34:06.928Z,5.48
2019-03-16T10:39:07.913Z,5.62
2019-03-16T10:43:07.058Z,5.62
2019-03-16T10:48:06.738Z,5.55
2019-03-16T10:53:06.211Z,5.56
2019-03-16T10:58:06.704Z,5.53
2019-03-16T11:03:06.507Z,5.53
2019-03-16T11:08:06.999Z,5.65
2019-03-16T11:13:06.898Z,5.52
2019-03-16T11:17:06.329Z,5.55
2019-03-16T11:22:06.846Z,5.46
2019-03-16T11:27:06.340Z,5.45
2019-03-16T11:32:06.591Z,5.6
2019-03-16T11:37:07.438Z,5.54
2019-03-16T11:42:07.138Z,5.64
2019-03-16T11:47:07.406Z,5.42
2019-03-16T11:51:06.777Z,5.39
2019-03-16T11:56:17.290Z,5.41
2019-03-16T12:01:07.233Z,5.71
2019-03-16T12:06:06.627Z,5.61
2019-03-16T12:11:07.566Z,5.39
2019-03-16T12:16:07.217Z,5.53
2019-03-16T12:21:07.010Z,5.69
2019-03-16T12:26:07.472Z,5.72
2019-03-16T12:31:06.685Z,5.82
2019-03-16T12:36:07.066Z,5.83
2019-03-16T12:41:07.269Z,5.77
2019-03-16T12:45:07.861Z,5.77
2019-03-16T12:50:06.569Z,5.85
2019-03-16T12:55:06.712Z,6.1
2019-03-16T13:00:08.723Z,6.1
2019-03-16T13:05:07.020Z,6.19
2019-03-16T13:10:07.067Z,6.1
2019-03-16T13:15:08.097Z,6.21
2019-03-16T13:20:06.995Z,6.06
2019-03-16T13:24:06.260Z,6.14
2019-03-16T13:29:06.859Z,6.08
2019-03-16T13:34:06.214Z,5.98
2019-03-16T13:39:07.051Z,6
2019-03-16T13:44:06.580Z,6.05
2019-03-16T13:49:07.013Z,6.07
2019-03-16T13:54:06.503Z,6.08
2019-03-16T13:58:07.363Z,6.14
2019-03-16T14:03:06.792Z,6.42
2019-03-16T14:08:06.341Z,6.43
2019-03-16T14:13:06.316Z,6.56
2019-03-16T14:18:06.571Z,6.7
2019-03-16T14:23:07.221Z,6.73
2019-03-16T14:28:07.067Z,6.82
2019-03-16T14:33:06.982Z,6.84
2019-03-16T14:37:07.181Z,6.87
2019-03-16T14:42:06.954Z,6.95
2019-03-16T14:47:07.286Z,7.05
2019-03-16T14:52:07.429Z,7.05
2019-03-16T14:57:06.904Z,7.09
2019-03-16T15:02:06.680Z,7.13
2019-03-16T15:07:07.217Z,7.15
2019-03-16T15:11:06.889Z,7.22
2019-03-16T15:16:06.889Z,7.3
2019-03-16T15:21:06.727Z,7.26
2019-03-16T15:26:07.211Z,7.3
2019-03-16T15:31:07.244Z,7.31
2019-03-16T15:36:06.728Z,7.33
2019-03-16T15:41:07.427Z,7.44
2019-03-16T15:45:08.050Z,7.5
2019-03-16T15:50:07.019Z,7.48
2019-03-16T15:55:06.303Z,7.5
2019-03-16T16:00:09.276Z,7.5
2019-03-16T16:05:06.553Z,7.56
2019-03-16T16:10:07.436Z,7.65
2019-03-16T16:15:07.988Z,7.73
2019-03-16T16:20:07.268Z,7.79
2019-03-16T16:24:06.277Z,7.86
2019-03-16T16:29:07.113Z,7.99
2019-03-16T16:34:07.121Z,8.56
2019-03-16T16:39:07.203Z,8.86
2019-03-16T16:44:06.373Z,9.03
2019-03-16T16:49:07.360Z,9.23
2019-03-16T16:54:06.472Z,9.35
2019-03-16T16:59:07.455Z,9.3
2019-03-16T17:03:06.947Z,9.33
2019-03-16T17:08:06.766Z,9.19
2019-03-16T17:13:06.747Z,9.45
2019-03-16T17:18:06.740Z,9.42
2019-03-16T17:23:06.834Z,9.5
2019-03-16T17:28:06.630Z,9.46
2019-03-16T17:33:06.899Z,9.54
2019-03-16T17:37:06.935Z,9.6
2019-03-16T17:42:08.304Z,9.55
2019-03-16T17:47:07.133Z,9.54
2019-03-16T17:52:06.263Z,9.57
2019-03-16T17:57:07.370Z,9.61
2019-03-16T18:02:06.848Z,9.69
2019-03-16T18:07:07.288Z,9.66
2019-03-16T18:11:06.823Z,9.57
2019-03-16T18:16:06.926Z,9.6
2019-03-16T18:21:06.463Z,9.6
2019-03-16T18:26:06.938Z,9.59
2019-03-16T18:31:06.533Z,9.68
2019-03-16T18:36:06.950Z,9.52
2019-03-16T18:41:06.881Z,9.51
2019-03-16T18:46:07.062Z,9.49
2019-03-16T18:51:06.532Z,9.5
2019-03-16T18:55:06.672Z,9.53
2019-03-16T19:00:09.518Z,9.56
2019-03-16T19:05:06.904Z,9.81
2019-03-16T19:10:07.084Z,9.96
2019-03-16T19:15:07.620Z,9.89
2019-03-16T19:20:07.227Z,9.91
2019-03-16T19:25:06.755Z,9.85
2019-03-16T19:30:08.363Z,9.93
2019-03-16T19:35:06.912Z,9.79
2019-03-16T19:39:07.802Z,9.74
2019-03-16T19:44:07.128Z,9.92
2019-03-16T19:49:07.148Z,9.77
2019-03-16T19:54:06.786Z,9.68
2019-03-16T19:59:06.351Z,9.71
2019-03-16T20:04:07.274Z,9.6
2019-03-16T20:09:06.833Z,9.62
2019-03-16T20:14:06.404Z,9.63
2019-03-16T20:18:07.034Z,9.6
2019-03-16T20:19:06.863Z,9.6
2019-03-16T20:23:06.550Z,9.49
2019-03-16T20:28:06.984Z,9.51
2019-03-16T20:33:07.011Z,9.42
2019-03-16T20:38:06.566Z,9.51
2019-03-16T20:43:06.520Z,9.59
2019-03-16T20:48:07.322Z,9.59
2019-03-16T20:53:06.881Z,9.54
2019-03-16T20:58:07.460Z,9.59
2019-03-16T21:03:16.587Z,9.5
2019-03-16T21:07:07.069Z,9.3
2019-03-16T21:12:06.970Z,9.34
2019-03-16T21:17:06.763Z,9.31
2019-03-16T21:22:07.288Z,9.42
2019-03-16T21:27:06.747Z,9.26
2019-03-16T21:32:06.856Z,9.18
2019-03-16T21:36:07.013Z,9.54
2019-03-16T21:37:06.458Z,9.54
2019-03-16T21:41:07.003Z,9.31
2019-03-16T21:46:07.290Z,9.21
2019-03-16T21:51:06.922Z,9.18
2019-03-16T21:56:06.544Z,9.19
2019-03-16T22:01:07.095Z,9.22
2019-03-16T22:06:06.826Z,9.27
2019-03-16T22:11:06.286Z,9.22
2019-03-16T22:16:06.787Z,9.23
2019-03-16T22:21:07.344Z,9.17
2019-03-16T22:25:06.412Z,9.17
2019-03-16T22:30:08.550Z,9.22
2019-03-16T22:35:09.041Z,9.29
2019-03-16T22:40:07.468Z,9.17
2019-03-16T22:45:08.196Z,9.19
2019-03-16T22:50:07.243Z,9.22
2019-03-16T22:55:06.421Z,9.17
2019-03-16T23:00:09.619Z,9.32
2019-03-16T23:05:06.571Z,9.21
2019-03-16T23:10:06.872Z,9.22
2019-03-16T23:14:07.293Z,9.22
2019-03-16T23:19:07.357Z,9.1
2019-03-16T23:24:06.910Z,9.17
2019-03-16T23:29:07.730Z,9.21
2019-03-16T23:34:19.587Z,9.16
2019-03-16T23:39:07.391Z,9.18
2019-03-16T23:44:06.904Z,9.11
2019-03-16T23:49:07.345Z,9.11
2019-03-16T23:54:06.889Z,9.15
2019-03-16T23:58:07.446Z,9.15
2019-03-16T23:59:06.655Z,9.15
